• Join FlightAware (Why Join?)
  • Login
  • US Flag 
05:47PM EST


 

Airport Tracker/Info


-or-


 

Live Flight TrackerFlight Track Log ✈ KAP444 ✈ 28-Jun-2013 ✈ TJSJ / SJU - TUPJ / EIS

Flight Track Log - Related Links

Times and Time Zones

All times are in EDT time to prevent confusion due to time zone crossing. See the KAP444 flight status page for this flight to view local times or setup timezone preferences in your user account.

Time Position Orientation Groundspeed Altitude Reporting Facility
EDT Latitude Longitude Course Direction KTS MPH feet Rate Location/Type
08:09PM 18.4333 -65.9667 90° East 90 104 900  Level San Juan Center
08:10PM 18.4333 -65.9500 90° East 110 127 1,500 540 Climbing San Juan Center
08:11PM 18.4500 -65.9167 62° Northeast 110 127 2,100 540 Climbing San Juan Center
08:12PM 18.4667 -65.8833 62° Northeast 100 115 2,700 600 Climbing San Juan Center
08:13PM 18.4667 -65.8500 90° East 120 138 3,300 540 Climbing San Juan Center
08:14PM 18.4667 -65.8333 90° East 120 138 3,900 540 Climbing San Juan Center
08:15PM 18.4833 -65.8000 62° Northeast 100 115 4,400 540 Climbing San Juan Center
08:16PM 18.4833 -65.7667 90° East 110 127 5,000 240 Climbing San Juan Center
08:17PM 18.4833 -65.7333 90° East 140 161 5,000  Level San Juan Center
08:18PM 18.4667 -65.6833 109° East 150 173 5,000  Level San Juan Center
08:19PM 18.4667 -65.6333 90° East 160 184 5,000  Level San Juan Center
08:20PM 18.4667 -65.5833 90° East 160 184 5,000  Level San Juan Center
08:21PM 18.4667 -65.5500 90° East 150 173 5,000  Level San Juan Center
08:22PM 18.4667 -65.5000 90° East 170 196 5,000  Level San Juan Center
08:23PM 18.4667 -65.4667 90° East 150 173 5,000  Level San Juan Center
08:24PM 18.4667 -65.4167 90° East 150 173 5,000  Level San Juan Center
08:25PM 18.4667 -65.3667 90° East 150 173 5,000  Level San Juan Center
08:26PM 18.4667 -65.3333 90° East 140 161 5,000  Level San Juan Center
08:27PM 18.4500 -65.2833 109° East 150 173 5,000  Level San Juan Center
08:28PM 18.4500 -65.2500 90° East 150 173 5,000  Level San Juan Center
08:29PM 18.4333 -65.2000 109° East 140 161 5,000 -300 Level San Juan Center
08:30PM 18.4333 -65.1500 90° East 170 196 4,400 -540 Descending San Juan Center
08:31PM 18.4333 -65.1000 90° East 160 184 4,000 -600 Descending San Juan Center
08:32PM 18.4333 -65.0667 90° East 170 196 3,300 -360 Descending San Juan Center
08:33PM 18.4167 -65.0167 109° East 160 184 3,300  Level San Juan Center
08:34PM 18.4167 -64.9667 90° East 140 161 3,300  Level San Juan Center
08:35PM 18.4167 -64.9333 90° East 140 161 3,300 -300 Level San Juan Center
08:36PM 18.4000 -64.8833 109° East 160 184 2,700 -480 Descending San Juan Center
08:37PM 18.3833 -64.8333 109° East 160 184 2,400 -300 Descending San Juan Center
08:40PM 18.4006 -64.7728 73° East  Level FlightAware Approximate
08:41PM 18.3333 -64.7000 73° East 150 173 1,500  Level San Juan Center
08:42PM 18.3333 -64.6500 90° East 160 184 1,400 -120 Descending San Juan Center
08:44PM 18.3819 -64.5934 48° Northeast  Level FlightAware Approximate
08:51PM 18.4333 -64.5333 82° East  Level FlightAware Approximate